Time;durP1;ratioP1;P1;durP2;ratioP2;P2;SDS_P1;SDS_P2;PMS_P1;PMS_P2;Temp;Humidity;BMP_temperature;BMP_pressure;BME280_temperature;BME280_humidity;BME280_pressure;Samples;Min_cycle;Max_cycle;Signal;HPM_P1;HPM_P2
2023/06/01 00:01:57;;;;;;;11.97;2.80;;;20.60;1.00;;;;;;5011919;28;20417;-76
2023/06/01 00:04:23;;;;;;;6.57;2.90;;;20.60;1.00;;;;;;5011575;28;20182;-75
2023/06/01 00:06:48;;;;;;;6.07;3.07;;;20.50;1.00;;;;;;5010276;28;20293;-74
2023/06/01 00:09:14;;;;;;;5.57;2.70;;;20.50;1.00;;;;;;5011443;28;20675;-74
2023/06/01 00:11:39;;;;;;;9.47;3.07;;;20.50;1.00;;;;;;5011558;28;21045;-75
2023/06/01 00:14:05;;;;;;;9.70;3.53;;;20.50;1.00;;;;;;5011570;28;20212;-76
2023/06/01 00:16:30;;;;;;;9.27;3.10;;;20.50;1.00;;;;;;5009771;28;20213;-75
2023/06/01 00:18:56;;;;;;;4.73;2.80;;;20.50;1.00;;;;;;5011641;28;20174;-75
2023/06/01 00:21:22;;;;;;;6.57;3.13;;;20.50;1.00;;;;;;5011204;28;20601;-75
2023/06/01 00:23:49;;;;;;;6.30;2.80;;;20.50;1.00;;;;;;5011484;28;20431;-75
2023/06/01 00:26:14;;;;;;;5.53;3.03;;;20.40;1.00;;;;;;5010894;28;20456;-74
2023/06/01 00:28:40;;;;;;;8.97;3.40;;;21.90;1.00;;;;;;5011344;28;20788;-75
2023/06/01 00:31:05;;;;;;;9.10;3.10;;;20.40;1.00;;;;;;5011368;28;20193;-75
2023/06/01 00:33:36;;;;;;;8.07;2.80;;;20.40;1.00;;;;;;5010331;28;20672;-76
2023/06/01 00:36:02;;;;;;;7.33;2.80;;;20.40;1.00;;;;;;5010521;28;20229;-75
2023/06/01 00:38:27;;;;;;;9.43;3.30;;;20.30;1.00;;;;;;5010596;28;20456;-75
2023/06/01 00:40:53;;;;;;;4.83;3.00;;;20.30;1.00;;;;;;5009948;28;20261;-75
2023/06/01 00:43:19;;;;;;;4.80;2.93;;;20.30;1.00;;;;;;5010766;28;20214;-75
2023/06/01 00:45:45;;;;;;;4.30;2.67;;;20.20;1.00;;;;;;5010817;28;20209;-76
2023/06/01 00:48:15;;;;;;;6.60;3.10;;;20.30;1.00;;;;;;5010906;28;20542;-76
2023/06/01 00:50:41;;;;;;;5.47;3.17;;;20.30;1.00;;;;;;5010885;28;20228;-75
2023/06/01 00:53:12;;;;;;;6.97;3.50;;;20.20;1.00;;;;;;5009624;28;20532;-75
2023/06/01 00:55:38;;;;;;;5.67;3.00;;;20.20;1.00;;;;;;5009043;28;20478;-76
2023/06/01 00:58:06;;;;;;;5.73;3.00;;;20.20;1.00;;;;;;5009203;28;20417;-75
2023/06/01 01:00:32;;;;;;;8.37;3.17;;;20.20;1.00;;;;;;5008235;28;20862;-75
2023/06/01 01:03:00;;;;;;;6.77;3.00;;;20.10;1.00;;;;;;5010636;28;20452;-76
2023/06/01 01:05:26;;;;;;;6.63;2.87;;;20.10;1.00;;;;;;5010351;28;20609;-75
2023/06/01 01:07:59;;;;;;;6.80;2.97;;;20.20;1.00;;;;;;5009158;28;20467;-75
2023/06/01 01:10:50;;;;;;;4.80;2.97;;;20.10;1.00;;;;;;5010520;28;20182;-75
2023/06/01 01:13:27;;;;;;;5.10;3.33;;;20.00;1.00;;;;;;5010244;28;20425;-75
2023/06/01 01:16:16;;;;;;;7.67;3.27;;;19.90;1.00;;;;;;5010579;28;21011;-75
2023/06/01 01:18:54;;;;;;;5.63;3.13;;;19.70;1.00;;;;;;5010624;28;20424;-75
2023/06/01 01:21:28;;;;;;;6.30;3.30;;;19.50;1.00;;;;;;5009930;28;20479;-75
2023/06/01 01:24:28;;;;;;;5.37;3.20;;;19.20;1.00;;;;;;5008926;28;20425;-75
2023/06/01 01:27:05;;;;;;;5.60;3.33;;;19.00;1.00;;;;;;5003588;28;20539;-75
2023/06/01 01:29:32;;;;;;;7.70;3.57;;;18.80;1.00;;;;;;5010258;28;20516;-75
2023/06/01 01:32:00;;;;;;;6.07;3.30;;;18.60;1.00;;;;;;5010434;28;20476;-75
2023/06/01 01:34:28;;;;;;;4.73;3.10;;;18.10;1.00;;;;;;5009887;28;20609;-75
2023/06/01 01:36:54;;;;;;;4.80;3.03;;;18.10;1.00;;;;;;5010196;28;20989;-74
2023/06/01 01:39:20;;;;;;;7.67;3.40;;;17.90;1.00;;;;;;5010180;28;20452;-74
2023/06/01 01:41:45;;;;;;;4.53;3.40;;;17.80;1.00;;;;;;5010297;28;20927;-75
2023/06/01 01:44:14;;;;;;;6.03;2.80;;;17.70;1.00;;;;;;5009033;28;20182;-75
2023/06/01 01:47:04;;;;;;;7.70;3.33;;;17.60;1.00;;;;;;5009834;28;20242;-75
2023/06/01 01:49:45;;;;;;;5.23;3.27;;;17.50;1.00;;;;;;5010684;28;20429;-75
2023/06/01 01:52:20;;;;;;;8.20;3.70;;;17.40;1.00;;;;;;5010707;28;20436;-75
2023/06/01 01:54:47;;;;;;;5.43;3.50;;;17.30;1.00;;;;;;5002941;28;20441;-75
2023/06/01 01:57:14;;;;;;;11.10;4.00;;;17.20;1.00;;;;;;5010540;28;20465;-75
2023/06/01 01:59:41;;;;;;;6.80;3.37;;;17.20;1.00;;;;;;5010393;28;20414;-75
2023/06/01 02:02:07;;;;;;;7.57;3.20;;;17.00;1.00;;;;;;5010555;28;20453;-75
2023/06/01 02:04:32;;;;;;;8.40;3.10;;;16.80;1.00;;;;;;5010010;28;20848;-75
2023/06/01 02:06:58;;;;;;;6.67;3.40;;;16.80;1.00;;;;;;5010483;28;20185;-75
2023/06/01 02:09:23;;;;;;;6.30;3.13;;;17.00;1.00;;;;;;5010456;28;20215;-74
2023/06/01 02:11:49;;;;;;;6.93;3.27;;;17.20;1.00;;;;;;5010339;28;20225;-75
2023/06/01 02:14:15;;;;;;;4.07;3.00;;;17.30;1.00;;;;;;5010693;28;20530;-75
2023/06/01 02:16:40;;;;;;;8.30;3.23;;;17.30;1.00;;;;;;5010047;28;20206;-75
2023/06/01 02:19:10;;;;;;;4.97;3.20;;;17.30;1.00;;;;;;5010410;28;20657;-74
2023/06/01 02:21:36;;;;;;;7.50;3.40;;;17.30;1.00;;;;;;5008759;28;20190;-75
2023/06/01 02:24:05;;;;;;;7.23;3.43;;;17.30;1.00;;;;;;5009330;28;20908;-75
2023/06/01 02:26:30;;;;;;;6.70;3.47;;;17.20;1.00;;;;;;5008700;28;20210;-75
2023/06/01 02:28:56;;;;;;;7.73;3.80;;;17.20;1.00;;;;;;5010324;28;20429;-75
2023/06/01 02:31:22;;;;;;;6.70;3.43;;;17.10;1.00;;;;;;5010142;28;20568;-74
2023/06/01 02:33:48;;;;;;;4.60;3.70;;;17.00;1.00;;;;;;5010121;28;20425;-75
2023/06/01 02:36:16;;;;;;;6.00;3.67;;;16.70;1.00;;;;;;5010112;28;20210;-75
2023/06/01 02:38:42;;;;;;;5.80;3.70;;;16.50;1.00;;;;;;5012394;28;20792;-75
2023/06/01 02:41:07;;;;;;;8.27;3.40;;;16.30;1.00;;;;;;5012659;28;20429;-74
2023/06/01 02:43:36;;;;;;;8.53;3.83;;;16.30;1.00;;;;;;5013664;28;20187;-74
2023/06/01 02:46:02;;;;;;;7.70;3.80;;;16.30;1.00;;;;;;5013711;28;20743;-75
2023/06/01 02:48:28;;;;;;;8.87;3.27;;;16.20;1.00;;;;;;5013471;28;20432;-75
2023/06/01 02:50:53;;;;;;;5.90;3.27;;;16.10;1.00;;;;;;5013952;28;20425;-75
2023/06/01 02:53:19;;;;;;;4.87;3.30;;;16.10;1.00;;;;;;5013654;28;20197;-75
2023/06/01 02:55:44;;;;;;;5.50;3.40;;;16.00;1.00;;;;;;5013253;28;20787;-73
2023/06/01 02:58:16;;;;;;;7.60;3.33;;;16.00;1.00;;;;;;5008691;28;20182;-75
2023/06/01 03:00:42;;;;;;;9.20;3.17;;;16.00;1.00;;;;;;5013498;28;20204;-74
2023/06/01 03:03:07;;;;;;;8.37;3.80;;;15.90;1.00;;;;;;5013470;28;20421;-75
2023/06/01 03:05:35;;;;;;;6.10;3.33;;;15.80;1.00;;;;;;5013019;28;20447;-75
2023/06/01 03:08:01;;;;;;;4.63;3.10;;;15.70;1.00;;;;;;5013132;28;20206;-75
2023/06/01 03:10:26;;;;;;;9.23;4.03;;;15.60;1.00;;;;;;5012692;28;20465;-74
2023/06/01 03:12:52;;;;;;;4.23;3.43;;;15.50;1.00;;;;;;5013425;28;20228;-75
2023/06/01 03:15:17;;;;;;;6.73;3.43;;;15.50;1.00;;;;;;5013197;28;20213;-75
2023/06/01 03:17:43;;;;;;;6.90;4.00;;;15.50;1.00;;;;;;5012922;28;20599;-75
2023/06/01 03:20:14;;;;;;;7.50;3.70;;;15.40;1.00;;;;;;5013633;28;20699;-75
2023/06/01 03:22:41;;;;;;;5.83;3.60;;;15.30;1.00;;;;;;5012725;28;20236;-75
2023/06/01 03:25:07;;;;;;;4.90;3.40;;;15.30;1.00;;;;;;5013052;28;20445;-75
2023/06/01 03:27:32;;;;;;;8.20;3.70;;;15.20;1.00;;;;;;5012585;28;20939;-75
2023/06/01 03:29:58;;;;;;;6.87;3.83;;;15.20;1.00;;;;;;5011596;28;20178;-75
2023/06/01 03:32:24;;;;;;;10.67;4.00;;;15.00;1.00;;;;;;5012487;28;20181;-74
2023/06/01 03:34:49;;;;;;;6.17;3.23;;;14.80;1.00;;;;;;5011394;28;20213;-75
2023/06/01 03:37:15;;;;;;;10.50;3.50;;;14.80;1.00;;;;;;5012737;28;20295;-75
2023/06/01 03:39:40;;;;;;;9.30;3.90;;;14.70;1.00;;;;;;5012733;28;20182;-75
2023/06/01 03:42:07;;;;;;;5.27;3.60;;;14.60;1.00;;;;;;5013054;28;20185;-74
2023/06/01 03:44:32;;;;;;;10.17;3.97;;;14.70;1.00;;;;;;5012244;28;20186;-75
2023/06/01 03:46:58;;;;;;;6.87;3.50;;;14.70;1.00;;;;;;5013380;28;20425;-75
2023/06/01 03:49:23;;;;;;;9.53;3.70;;;14.80;1.00;;;;;;5010940;28;20218;-76
2023/06/01 03:51:49;;;;;;;6.07;3.73;;;14.80;1.00;;;;;;5012095;28;20213;-75
2023/06/01 03:54:15;;;;;;;4.70;3.83;;;14.80;1.00;;;;;;5012498;28;20193;-75
2023/06/01 03:56:41;;;;;;;7.83;4.00;;;14.80;1.00;;;;;;5006191;28;20207;-75
2023/06/01 03:59:07;;;;;;;9.00;3.67;;;14.90;1.00;;;;;;5011037;28;20178;-75
2023/06/01 04:01:33;;;;;;;9.73;3.37;;;14.90;1.00;;;;;;5012106;28;20493;-75
2023/06/01 04:03:59;;;;;;;11.53;3.67;;;14.90;1.00;;;;;;5012273;28;20433;-76
2023/06/01 04:06:29;;;;;;;7.20;3.83;;;14.90;1.00;;;;;;5012220;28;20799;-76
2023/06/01 04:09:00;;;;;;;12.70;4.10;;;14.90;1.00;;;;;;5004758;28;20417;-76
2023/06/01 04:11:26;;;;;;;10.83;3.80;;;14.90;1.00;;;;;;5011883;28;20420;-77
2023/06/01 04:13:52;;;;;;;7.17;3.63;;;14.90;1.00;;;;;;5012206;28;20422;-75
2023/06/01 04:16:18;;;;;;;10.93;3.60;;;14.90;1.00;;;;;;5012045;28;20206;-75
2023/06/01 04:18:44;;;;;;;5.47;3.60;;;14.90;1.00;;;;;;5011541;28;20197;-75
2023/06/01 04:21:10;;;;;;;9.93;3.80;;;14.90;1.00;;;;;;5012008;28;20510;-75
2023/06/01 04:23:37;;;;;;;4.43;3.50;;;14.90;1.00;;;;;;5011718;28;20194;-75
2023/06/01 04:26:03;;;;;;;6.93;3.93;;;14.90;1.00;;;;;;5010684;28;20265;-75
2023/06/01 04:28:29;;;;;;;8.10;3.60;;;14.90;1.00;;;;;;5011448;28;20843;-74
2023/06/01 04:30:55;;;;;;;7.73;3.53;;;14.90;1.00;;;;;;5012038;28;20428;-75
2023/06/01 04:33:24;;;;;;;7.40;4.40;;;15.10;1.00;;;;;;5011479;28;20432;-75
2023/06/01 04:35:52;;;;;;;12.27;4.10;;;15.10;1.00;;;;;;5011327;28;20523;-77
2023/06/01 04:38:18;;;;;;;7.67;3.60;;;15.20;1.00;;;;;;5010644;28;20784;-75
2023/06/01 04:40:47;;;;;;;7.73;3.70;;;15.30;1.00;;;;;;5011542;28;20429;-75
2023/06/01 04:43:18;;;;;;;10.53;4.23;;;15.40;1.00;;;;;;5011797;28;20175;-76
2023/06/01 04:45:45;;;;;;;6.50;3.50;;;15.50;1.00;;;;;;5011196;28;20471;-75
2023/06/01 04:48:11;;;;;;;10.33;4.10;;;15.60;1.00;;;;;;5011296;28;20432;-75
2023/06/01 04:50:37;;;;;;;9.43;3.67;;;15.60;1.00;;;;;;5011434;28;20421;-75
2023/06/01 04:53:03;;;;;;;8.70;4.03;;;15.70;1.00;;;;;;5011607;28;20187;-75
2023/06/01 04:55:28;;;;;;;8.33;4.10;;;15.80;1.00;;;;;;5010991;28;20467;-76
2023/06/01 04:57:54;;;;;;;5.50;3.90;;;15.80;1.00;;;;;;5004862;28;20429;-75
2023/06/01 05:00:20;;;;;;;9.20;4.30;;;15.90;1.00;;;;;;5010063;28;20186;-75
2023/06/01 05:02:47;;;;;;;7.73;4.13;;;16.00;1.00;;;;;;5009957;28;20205;-75
2023/06/01 05:05:14;;;;;;;7.07;4.10;;;16.20;1.00;;;;;;5011240;28;20563;-75
2023/06/01 05:07:41;;;;;;;6.23;4.30;;;16.20;1.00;;;;;;5010880;28;20513;-75
2023/06/01 05:10:10;;;;;;;7.60;4.43;;;16.30;1.00;;;;;;5011454;28;20421;-75
2023/06/01 05:12:37;;;;;;;7.60;4.00;;;16.30;1.00;;;;;;5010812;28;20425;-75
2023/06/01 05:15:07;;;;;;;11.33;4.20;;;16.40;1.00;;;;;;5010918;28;20985;-76
2023/06/01 05:17:34;;;;;;;7.67;4.70;;;16.40;1.00;;;;;;5010186;28;20820;-75
2023/06/01 05:19:59;;;;;;;7.93;4.27;;;16.50;1.00;;;;;;5011196;28;20509;-75
2023/06/01 05:22:25;;;;;;;10.13;4.67;;;16.60;1.00;;;;;;5010968;28;20409;-75
2023/06/01 05:24:51;;;;;;;7.70;4.50;;;16.70;1.00;;;;;;5010681;28;20619;-75
2023/06/01 05:27:17;;;;;;;8.83;4.77;;;16.70;1.00;;;;;;5010854;28;20182;-75
2023/06/01 05:29:42;;;;;;;8.27;4.10;;;16.80;1.00;;;;;;5010717;28;20190;-76
2023/06/01 05:32:09;;;;;;;10.57;4.63;;;16.90;1.00;;;;;;5010743;28;20182;-76
2023/06/01 05:34:35;;;;;;;8.30;4.80;;;17.10;1.00;;;;;;5010027;28;20178;-75
2023/06/01 05:37:01;;;;;;;12.70;5.90;;;17.10;1.00;;;;;;5010586;28;20475;-75
2023/06/01 05:39:28;;;;;;;9.97;5.50;;;17.20;1.00;;;;;;5011076;28;20179;-76
2023/06/01 05:41:54;;;;;;;10.83;5.00;;;17.30;1.00;;;;;;5011011;28;20425;-75
2023/06/01 05:44:20;;;;;;;10.00;5.43;;;17.40;1.00;;;;;;5010446;28;20436;-75
2023/06/01 05:46:45;;;;;;;8.00;5.50;;;17.30;1.00;;;;;;5010222;28;20425;-75
2023/06/01 05:49:11;;;;;;;9.57;5.53;;;17.40;1.00;;;;;;5008943;28;20265;-75
2023/06/01 05:51:37;;;;;;;12.83;5.80;;;17.40;1.00;;;;;;5009875;28;20196;-76
2023/06/01 05:54:04;;;;;;;10.07;5.87;;;17.50;1.00;;;;;;5008840;28;20189;-76
2023/06/01 05:56:30;;;;;;;10.53;5.60;;;17.50;1.00;;;;;;5003623;28;20469;-75
2023/06/01 05:58:56;;;;;;;12.23;5.40;;;17.60;1.00;;;;;;5009496;28;20857;-75
2023/06/01 06:01:22;;;;;;;8.33;5.23;;;17.70;1.00;;;;;;5010036;28;20418;-75
2023/06/01 06:03:47;;;;;;;6.70;5.03;;;17.80;1.00;;;;;;5009705;28;20186;-75
2023/06/01 06:06:13;;;;;;;13.00;5.43;;;17.80;1.00;;;;;;5009978;28;20480;-75
2023/06/01 06:08:38;;;;;;;10.23;5.10;;;17.90;1.00;;;;;;5009679;28;20538;-75
2023/06/01 06:11:04;;;;;;;8.20;5.17;;;18.00;1.00;;;;;;5010450;28;20784;-75
2023/06/01 06:13:30;;;;;;;10.00;4.97;;;18.10;1.00;;;;;;5012069;28;20189;-76
2023/06/01 06:15:55;;;;;;;9.03;5.73;;;18.10;1.00;;;;;;5013536;28;20572;-76
2023/06/01 06:18:21;;;;;;;9.10;4.70;;;18.20;1.00;;;;;;5013746;28;20704;-76
2023/06/01 06:20:47;;;;;;;11.13;5.00;;;18.20;1.00;;;;;;5013641;28;20189;-76
2023/06/01 06:23:12;;;;;;;9.00;5.00;;;18.30;1.00;;;;;;5013780;28;20352;-75
2023/06/01 06:25:40;;;;;;;10.33;5.30;;;18.30;1.00;;;;;;5013359;28;20580;-75
2023/06/01 06:28:05;;;;;;;9.37;5.60;;;18.40;1.00;;;;;;5013396;28;20200;-75
2023/06/01 06:30:31;;;;;;;10.23;4.97;;;18.50;1.00;;;;;;5013290;28;20522;-74
2023/06/01 06:32:57;;;;;;;8.20;4.90;;;18.60;1.00;;;;;;5013161;28;20556;-76
2023/06/01 06:35:22;;;;;;;13.63;5.50;;;18.80;1.00;;;;;;5013271;28;20572;-75
2023/06/01 06:37:48;;;;;;;7.70;4.83;;;18.90;1.00;;;;;;5013087;28;20594;-76
2023/06/01 06:40:13;;;;;;;10.60;5.47;;;19.00;1.00;;;;;;5013575;28;20178;-76
2023/06/01 06:42:40;;;;;;;7.60;4.30;;;19.10;1.00;;;;;;5012910;28;20186;-75
2023/06/01 06:45:06;;;;;;;11.50;5.30;;;19.30;1.00;;;;;;5013207;28;20300;-75
2023/06/01 06:47:32;;;;;;;9.83;4.87;;;19.40;1.00;;;;;;5013202;28;20476;-75
2023/06/01 06:49:57;;;;;;;9.87;5.83;;;19.50;1.00;;;;;;5013317;28;20469;-76
2023/06/01 06:52:23;;;;;;;8.17;4.80;;;19.50;1.00;;;;;;5011824;28;20182;-76
2023/06/01 06:54:48;;;;;;;9.30;5.70;;;19.60;1.00;;;;;;5012849;28;20213;-76
2023/06/01 06:57:14;;;;;;;10.60;4.70;;;19.70;1.00;;;;;;5012515;28;20205;-76
2023/06/01 06:59:39;;;;;;;7.77;4.63;;;19.80;1.00;;;;;;5012775;28;20217;-76
2023/06/01 07:02:05;;;;;;;6.77;4.50;;;20.20;1.00;;;;;;5012988;28;20186;-76
2023/06/01 07:04:31;;;;;;;8.23;3.80;;;20.30;1.00;;;;;;5012801;28;20186;-75
2023/06/01 07:06:56;;;;;;;12.97;4.10;;;20.30;1.00;;;;;;5012570;28;20425;-76
2023/06/01 07:09:22;;;;;;;7.27;3.80;;;20.60;1.00;;;;;;5013086;28;20186;-76
2023/06/01 07:11:48;;;;;;;6.67;4.63;;;20.70;1.00;;;;;;5012304;28;20240;-76
2023/06/01 07:14:16;;;;;;;7.40;4.20;;;21.00;1.00;;;;;;5012492;28;20252;-75
2023/06/01 07:16:41;;;;;;;8.83;4.53;;;21.00;1.00;;;;;;5012259;28;20220;-76
2023/06/01 07:19:08;;;;;;;13.23;5.30;;;21.10;1.00;;;;;;5012699;28;20421;-76
2023/06/01 07:21:33;;;;;;;8.80;4.57;;;21.20;1.00;;;;;;5012683;28;20675;-76
2023/06/01 07:23:59;;;;;;;7.60;4.30;;;21.40;1.00;;;;;;5011585;28;20487;-76
2023/06/01 07:26:26;;;;;;;6.13;4.10;;;21.60;1.00;;;;;;5012152;28;20206;-76
2023/06/01 07:28:53;;;;;;;11.00;5.00;;;21.80;1.00;;;;;;5012259;28;20185;-76
2023/06/01 07:31:19;;;;;;;9.77;4.90;;;22.00;1.00;;;;;;5011066;28;20432;-76
2023/06/01 07:33:45;;;;;;;18.30;4.67;;;22.10;1.00;;;;;;5011751;28;20474;-76
2023/06/01 07:36:11;;;;;;;9.77;4.93;;;22.40;1.00;;;;;;5011991;28;20476;-76
2023/06/01 07:38:37;;;;;;;10.43;4.90;;;22.60;1.00;;;;;;5010788;28;20276;-76
2023/06/01 07:41:02;;;;;;;13.20;4.53;;;22.80;1.00;;;;;;5011851;28;21002;-76
2023/06/01 07:43:28;;;;;;;8.50;4.60;;;23.00;1.00;;;;;;5012203;28;20245;-75
2023/06/01 07:45:54;;;;;;;21.80;5.07;;;23.30;1.00;;;;;;5011908;28;20218;-76
2023/06/01 07:48:19;;;;;;;10.13;5.00;;;23.50;1.00;;;;;;5012160;28;20572;-76
2023/06/01 07:50:46;;;;;;;12.27;4.60;;;23.80;1.00;;;;;;5011928;28;20425;-76
2023/06/01 07:53:12;;;;;;;10.93;4.30;;;24.00;1.00;;;;;;5012159;28;20584;-76
2023/06/01 07:55:37;;;;;;;8.60;5.10;;;24.30;1.00;;;;;;5011803;28;20467;-76
2023/06/01 07:58:04;;;;;;;8.87;5.00;;;24.30;1.00;;;;;;5011294;28;20182;-76
2023/06/01 08:00:29;;;;;;;13.87;4.63;;;24.40;1.00;;;;;;5012046;28;20803;-76
2023/06/01 08:02:55;;;;;;;11.63;4.83;;;24.50;1.00;;;;;;5010086;28;20512;-76
2023/06/01 08:05:21;;;;;;;11.73;5.23;;;25.00;1.00;;;;;;5011744;28;20198;-76
2023/06/01 08:07:47;;;;;;;7.40;4.33;;;25.10;1.00;;;;;;5011394;28;20186;-76
2023/06/01 08:10:15;;;;;;;7.30;4.47;;;25.30;1.00;;;;;;5010221;28;20503;-76
2023/06/01 08:12:42;;;;;;;6.17;4.30;;;25.40;1.00;;;;;;5011217;28;20178;-76
2023/06/01 08:15:10;;;;;;;11.93;4.60;;;25.70;1.00;;;;;;5011712;28;20440;-76
2023/06/01 08:17:35;;;;;;;8.07;4.17;;;25.60;1.00;;;;;;5011448;28;20491;-76
2023/06/01 08:20:07;;;;;;;8.70;4.60;;;25.70;1.00;;;;;;5011378;28;20453;-76
2023/06/01 08:22:33;;;;;;;8.10;4.40;;;25.80;1.00;;;;;;5011353;28;20314;-76
2023/06/01 08:24:59;;;;;;;5.80;4.03;;;25.90;1.00;;;;;;5011291;28;20474;-76
2023/06/01 08:27:25;;;;;;;7.77;4.50;;;26.00;1.00;;;;;;5011342;28;20927;-76
2023/06/01 08:29:50;;;;;;;6.80;4.03;;;26.10;1.00;;;;;;5011311;28;20276;-76
2023/06/01 08:32:17;;;;;;;9.20;4.80;;;26.20;1.00;;;;;;5011334;28;20224;-76
2023/06/01 08:34:46;;;;;;;7.77;4.53;;;26.50;1.00;;;;;;5010922;28;20197;-75
2023/06/01 08:37:13;;;;;;;12.47;5.00;;;26.50;1.00;;;;;;5010846;28;20471;-76
2023/06/01 08:39:38;;;;;;;13.93;4.60;;;26.80;1.00;;;;;;5011409;28;20428;-76
2023/06/01 08:42:08;;;;;;;9.00;4.50;;;27.00;1.00;;;;;;5010896;28;20312;-76
2023/06/01 08:44:37;;;;;;;9.43;4.10;;;27.50;1.00;;;;;;5010834;28;20268;-76
2023/06/01 08:47:04;;;;;;;6.63;3.63;;;27.60;1.00;;;;;;5010873;28;20196;-76
2023/06/01 08:49:32;;;;;;;8.10;4.30;;;27.80;1.00;;;;;;5011188;28;20276;-76
2023/06/01 08:52:00;;;;;;;10.57;5.07;;;27.90;1.00;;;;;;5010697;28;20664;-76
2023/06/01 08:54:26;;;;;;;10.03;4.10;;;28.20;1.00;;;;;;5011140;28;20186;-76
2023/06/01 08:56:51;;;;;;;7.10;4.03;;;28.20;1.00;;;;;;5002310;28;20214;-76
2023/06/01 08:59:17;;;;;;;5.90;4.30;;;28.60;1.00;;;;;;5011010;28;20189;-76
2023/06/01 09:01:43;;;;;;;8.50;4.07;;;29.30;1.00;;;;;;5010822;28;20268;-76
2023/06/01 09:04:09;;;;;;;6.33;3.73;;;29.90;1.00;;;;;;5002604;28;20181;-77
2023/06/01 09:06:36;;;;;;;9.68;4.28;;;31.10;1.00;;;;;;5010694;28;20206;-77
2023/06/01 09:09:02;;;;;;;8.23;4.10;;;32.20;1.00;;;;;;5010101;28;20210;-77
2023/06/01 09:11:28;;;;;;;11.90;3.90;;;32.70;1.00;;;;;;5010883;28;20186;-76
2023/06/01 09:13:53;;;;;;;11.23;4.03;;;33.40;1.00;;;;;;5010399;28;20541;-77
2023/06/01 09:16:19;;;;;;;8.93;3.90;;;34.00;1.00;;;;;;5010520;28;20214;-77
2023/06/01 09:18:55;;;;;;;8.00;4.13;;;34.50;1.00;;;;;;5008818;28;20204;-74
2023/06/01 09:21:21;;;;;;;8.82;3.80;;;34.50;1.00;;;;;;5010482;28;20177;-77
2023/06/01 09:23:47;;;;;;;8.63;4.35;;;35.50;1.00;;;;;;5008842;28;20644;-77
2023/06/01 09:26:14;;;;;;;5.63;3.80;;;35.90;1.00;;;;;;5010347;28;20193;-77
2023/06/01 09:28:54;;;;;;;7.95;4.00;;;36.20;1.00;;;;;;5010441;28;20532;-77
2023/06/01 09:31:36;;;;;;;10.45;3.70;;;36.50;1.00;;;;;;5003296;28;20193;-77
2023/06/01 09:34:03;;;;;;;6.78;3.63;;;36.60;1.00;;;;;;5009743;28;20200;-77
2023/06/01 09:36:28;;;;;;;8.18;4.43;;;37.00;1.00;;;;;;5010084;28;20209;-77
2023/06/01 09:39:05;;;;;;;10.25;3.53;;;37.20;1.00;;;;;;5008188;28;20178;-77
2023/06/01 09:41:54;;;;;;;7.60;4.00;;;37.50;1.00;;;;;;5009864;28;20319;-77
2023/06/01 09:44:34;;;;;;;6.30;3.92;;;38.40;1.00;;;;;;5003399;28;20188;-77
2023/06/01 09:47:02;;;;;;;10.93;3.72;;;38.40;1.00;;;;;;5010545;28;20276;-77
2023/06/01 09:49:44;;;;;;;8.07;3.10;;;38.60;1.00;;;;;;5009567;28;20213;-78
2023/06/01 09:52:14;;;;;;;10.48;3.70;;;39.00;1.00;;;;;;5009078;28;20268;-77
2023/06/01 09:54:48;;;;;;;7.65;3.45;;;39.20;1.00;;;;;;5010572;28;20209;-78
2023/06/01 09:57:23;;;;;;;8.23;3.90;;;39.30;1.00;;;;;;5009967;28;20212;-77
2023/06/01 09:59:49;;;;;;;6.40;3.20;;;39.40;1.00;;;;;;5010487;28;20188;-77
2023/06/01 10:02:18;;;;;;;12.85;3.85;;;39.10;1.00;;;;;;5004525;28;20178;-77
2023/06/01 10:04:49;;;;;;;7.00;3.83;;;40.30;1.00;;;;;;5010275;28;20201;-77
2023/06/01 10:07:17;;;;;;;7.45;3.80;;;40.40;1.00;;;;;;5002872;28;20188;-77
2023/06/01 10:09:48;;;;;;;7.70;3.40;;;40.70;1.00;;;;;;5010746;28;20190;-77
2023/06/01 10:12:14;;;;;;;5.55;3.20;;;41.10;1.00;;;;;;5010633;28;20189;-77
2023/06/01 10:14:40;;;;;;;12.18;4.28;;;39.80;1.00;;;;;;5009247;28;20713;-77
2023/06/01 10:17:06;;;;;;;8.68;4.22;;;39.80;1.00;;;;;;5010406;28;20221;-77
2023/06/01 10:19:33;;;;;;;9.15;3.80;;;39.30;1.00;;;;;;5010508;28;20182;-77
2023/06/01 10:21:58;;;;;;;10.20;3.70;;;39.30;1.00;;;;;;5010139;28;20232;-77
2023/06/01 10:24:25;;;;;;;4.90;3.38;;;39.70;1.00;;;;;;5010396;28;20186;-77
2023/06/01 10:27:02;;;;;;;6.80;3.80;;;39.70;1.00;;;;;;5010018;28;20277;-75
2023/06/01 10:29:30;;;;;;;4.78;3.40;;;40.60;1.00;;;;;;5010677;28;20680;-79
2023/06/01 10:31:57;;;;;;;6.25;3.75;;;41.10;1.00;;;;;;5009929;28;20186;-77
2023/06/01 10:34:53;;;;;;;8.63;3.55;;;40.40;1.00;;;;;;5010194;28;20657;-77
2023/06/01 10:37:18;;;;;;;7.95;3.05;;;40.40;1.00;;;;;;4993467;28;20631;-77
2023/06/01 10:39:44;;;;;;;7.03;3.67;;;40.40;1.00;;;;;;5010411;28;20186;-77
2023/06/01 10:42:12;;;;;;;6.15;3.25;;;40.10;1.00;;;;;;5009949;28;20193;-77
2023/06/01 10:44:50;;;;;;;6.82;3.28;;;39.80;1.00;;;;;;5010041;28;20731;-77
2023/06/01 10:47:17;;;;;;;8.13;3.75;;;39.30;1.00;;;;;;5002357;28;20265;-77
2023/06/01 10:49:48;;;;;;;8.73;3.60;;;39.30;1.00;;;;;;5008990;28;20556;-76
2023/06/01 10:52:34;;;;;;;6.15;3.50;;;39.20;1.00;;;;;;5009806;28;20185;-77
2023/06/01 10:55:13;;;;;;;4.68;3.45;;;40.10;1.00;;;;;;5009898;28;20609;-77
2023/06/01 10:57:45;;;;;;;7.07;3.20;;;40.30;1.00;;;;;;5009031;28;20210;-77
2023/06/01 11:00:26;;;;;;;5.15;3.60;;;41.00;1.00;;;;;;5011496;28;20174;-77
2023/06/01 11:03:03;;;;;;;6.25;3.30;;;41.40;1.00;;;;;;5013122;28;20244;-77
2023/06/01 11:05:48;;;;;;;5.55;3.33;;;40.30;1.00;;;;;;5012204;28;20204;-76
2023/06/01 11:08:17;;;;;;;11.18;3.20;;;40.30;1.00;;;;;;5013176;28;20267;-77
2023/06/01 11:10:55;;;;;;;5.50;3.70;;;40.70;1.00;;;;;;5013658;28;20182;-77
2023/06/01 11:13:26;;;;;;;5.85;5.00;;;41.20;1.00;;;;;;5006159;28;20176;-77
2023/06/01 11:16:10;;;;;;;5.00;3.28;;;41.50;1.00;;;;;;5011837;28;20214;-77
2023/06/01 11:18:46;;;;;;;9.43;5.28;;;41.10;1.00;;;;;;5012138;28;20174;-77
2023/06/01 11:21:17;;;;;;;6.22;3.45;;;41.20;1.00;;;;;;5013061;28;20213;-77
2023/06/01 11:23:44;;;;;;;6.55;3.85;;;41.60;1.00;;;;;;5013253;28;20231;-77
2023/06/01 11:26:17;;;;;;;6.72;3.72;;;41.50;1.00;;;;;;5011473;28;20237;-76
2023/06/01 11:28:43;;;;;;;5.65;3.35;;;40.80;1.00;;;;;;5013192;28;20221;-78
2023/06/01 11:31:10;;;;;;;5.35;3.28;;;41.10;1.00;;;;;;5012769;28;20256;-77
2023/06/01 11:33:40;;;;;;;8.15;3.50;;;41.20;1.00;;;;;;5012660;28;20204;-77
2023/06/01 11:36:07;;;;;;;7.53;3.65;;;41.30;1.00;;;;;;5011182;28;20217;-77
2023/06/01 11:38:40;;;;;;;5.55;3.58;;;41.30;1.00;;;;;;5012837;28;20279;-77
2023/06/01 11:41:07;;;;;;;7.82;3.08;;;42.10;1.00;;;;;;5012750;28;20221;-76
2023/06/01 11:43:33;;;;;;;4.90;3.33;;;42.10;1.00;;;;;;5013024;28;20182;-77
2023/06/01 11:46:07;;;;;;;5.85;3.42;;;42.40;1.00;;;;;;5012384;28;20712;-76
2023/06/01 11:48:34;;;;;;;4.78;2.90;;;42.40;1.00;;;;;;5011914;28;20237;-77
2023/06/01 11:51:00;;;;;;;7.05;3.28;;;42.80;1.00;;;;;;5010632;28;20188;-76
2023/06/01 11:53:27;;;;;;;7.03;3.28;;;42.70;1.00;;;;;;5012063;28;20182;-76
2023/06/01 11:55:54;;;;;;;6.90;3.22;;;43.00;1.00;;;;;;5010856;28;20360;-77
2023/06/01 11:58:28;;;;;;;9.38;3.33;;;43.20;1.00;;;;;;5004043;28;20659;-78
2023/06/01 12:00:54;;;;;;;6.35;3.25;;;43.60;1.00;;;;;;5011819;28;20189;-77
2023/06/01 12:03:20;;;;;;;5.18;3.30;;;42.90;1.00;;;;;;5011877;28;20660;-77
2023/06/01 12:05:48;;;;;;;6.50;3.05;;;42.40;1.00;;;;;;5011687;28;20216;-77
2023/06/01 12:08:24;;;;;;;5.70;3.13;;;42.70;1.00;;;;;;5011689;28;20548;-77
2023/06/01 12:10:52;;;;;;;7.40;3.28;;;43.00;1.00;;;;;;5010199;28;20185;-76
2023/06/01 12:13:19;;;;;;;4.88;3.00;;;42.90;1.00;;;;;;5010164;28;20193;-77
2023/06/01 12:15:46;;;;;;;7.43;3.22;;;42.60;1.00;;;;;;5011653;28;20260;-77
2023/06/01 12:18:11;;;;;;;9.25;3.50;;;42.80;1.00;;;;;;5011162;28;20182;-77
2023/06/01 12:20:42;;;;;;;7.07;3.15;;;42.80;1.00;;;;;;5011750;28;20198;-77
2023/06/01 12:23:15;;;;;;;5.75;3.10;;;42.40;1.00;;;;;;5011418;28;20535;-77
2023/06/01 12:25:52;;;;;;;8.60;3.03;;;42.70;1.00;;;;;;5011543;28;20284;-77
2023/06/01 12:28:18;;;;;;;5.32;3.97;;;42.60;1.00;;;;;;5011034;28;20170;-77
2023/06/01 12:30:45;;;;;;;6.22;3.35;;;42.60;1.00;;;;;;5011487;28;20220;-77
2023/06/01 12:33:30;;;;;;;5.57;3.17;;;42.50;1.00;;;;;;5011094;28;20300;-77
2023/06/01 12:35:56;;;;;;;12.43;3.80;;;41.60;1.00;;;;;;5009591;28;20648;-78
2023/06/01 12:38:22;;;;;;;4.57;3.40;;;41.10;1.00;;;;;;5011170;28;20178;-77
2023/06/01 12:41:08;;;;;;;8.80;3.22;;;41.50;1.00;;;;;;5011275;28;20188;-77
2023/06/01 12:43:34;;;;;;;7.57;3.40;;;42.40;1.00;;;;;;5011214;28;20260;-77
2023/06/01 12:46:01;;;;;;;7.40;3.75;;;41.80;1.00;;;;;;5010730;28;20579;-76
2023/06/01 12:48:34;;;;;;;5.07;3.42;;;41.40;1.00;;;;;;5011163;28;20264;-77
2023/06/01 12:51:00;;;;;;;6.03;3.90;;;41.40;1.00;;;;;;5009728;28;20243;-76
2023/06/01 12:53:29;;;;;;;6.82;3.88;;;42.10;1.00;;;;;;5010842;28;20186;-76
2023/06/01 12:55:55;;;;;;;6.55;3.58;;;42.50;1.00;;;;;;5009074;28;20197;-77
2023/06/01 12:58:21;;;;;;;9.40;3.60;;;42.40;1.00;;;;;;5010432;28;20189;-76
2023/06/01 13:00:48;;;;;;;6.72;3.40;;;41.90;1.00;;;;;;5010968;28;20181;-77